createdAt,value
2022-09-03T00:04:43.697Z,3.20
2022-09-03T00:09:58.488Z,3.30
2022-09-03T00:15:06.917Z,3.20
2022-09-03T00:20:37.760Z,3.20
2022-09-03T00:25:59.650Z,3.40
2022-09-03T00:31:12.529Z,3.50
2022-09-03T00:36:23.911Z,4.40
2022-09-03T00:41:59.335Z,3.00
2022-09-03T00:47:32.470Z,3.00
2022-09-03T00:52:49.883Z,3.00
2022-09-03T00:58:02.663Z,3.40
2022-09-03T01:03:11.223Z,4.20
2022-09-03T01:08:41.802Z,3.80
2022-09-03T01:14:02.585Z,3.80
2022-09-03T01:19:11.434Z,3.60
2022-09-03T01:25:11.601Z,3.30
2022-09-03T01:30:19.371Z,3.20
2022-09-03T01:35:31.420Z,4.10
2022-09-03T01:40:34.479Z,3.60
2022-09-03T01:46:01.041Z,3.90
2022-09-03T01:51:11.643Z,4.20
2022-09-03T01:56:21.050Z,3.60
2022-09-03T02:01:34.400Z,3.60
2022-09-03T02:06:36.723Z,3.70
2022-09-03T02:11:39.630Z,4.10
2022-09-03T02:16:44.890Z,3.60
2022-09-03T02:21:52.883Z,4.50
2022-09-03T02:26:56.746Z,4.80
2022-09-03T02:31:58.847Z,3.50
2022-09-03T02:37:12.158Z,4.40
2022-09-03T02:42:16.068Z,5.00
2022-09-03T02:47:20.791Z,3.70
2022-09-03T02:52:23.713Z,4.30
2022-09-03T02:57:27.840Z,3.90
2022-09-03T03:02:31.383Z,3.90
2022-09-03T03:07:39.787Z,4.20
2022-09-03T03:12:42.537Z,4.30
2022-09-03T03:17:46.510Z,3.70
2022-09-03T03:22:49.492Z,3.60
2022-09-03T03:27:57.637Z,4.00
2022-09-03T03:33:00.997Z,5.30
2022-09-03T03:38:03.354Z,3.60
2022-09-03T03:43:09.597Z,3.50
2022-09-03T03:48:13.490Z,3.50
2022-09-03T03:53:16.882Z,3.90
2022-09-03T03:58:20.173Z,3.40
2022-09-03T04:03:23.226Z,3.70
2022-09-03T04:08:27.277Z,3.80
2022-09-03T04:13:33.624Z,4.30
2022-09-03T04:18:37.330Z,3.20
2022-09-03T04:23:43.628Z,6.10
2022-09-03T04:28:47.198Z,4.20
2022-09-03T04:33:51.939Z,4.30
2022-09-03T04:38:56.203Z,4.50
2022-09-03T04:44:00.282Z,4.50
2022-09-03T04:49:04.767Z,4.70
2022-09-03T04:54:07.096Z,5.80
2022-09-03T04:59:09.735Z,4.50
2022-09-03T05:04:12.016Z,4.90
2022-09-03T05:09:14.278Z,4.20
2022-09-03T05:14:16.997Z,4.90
2022-09-03T05:19:20.118Z,3.80
2022-09-03T05:24:25.131Z,4.50
2022-09-03T05:29:27.846Z,4.70
2022-09-03T05:34:31.039Z,4.20
2022-09-03T05:39:33.540Z,4.70
2022-09-03T05:44:37.129Z,4.90
2022-09-03T05:49:40.050Z,5.00
2022-09-03T05:54:43.325Z,5.50
2022-09-03T05:59:47.326Z,4.50
2022-09-03T06:04:51.590Z,5.00
2022-09-03T06:09:55.415Z,4.50
2022-09-03T06:14:58.893Z,4.40
2022-09-03T06:20:01.934Z,6.70
2022-09-03T06:25:05.115Z,4.70
2022-09-03T06:30:09.699Z,4.70
2022-09-03T06:35:13.797Z,4.00
2022-09-03T06:40:23.602Z,4.30
2022-09-03T06:45:27.651Z,3.80
2022-09-03T06:50:34.614Z,4.20
2022-09-03T06:55:40.169Z,4.00
2022-09-03T07:00:44.515Z,3.00
2022-09-03T07:05:48.202Z,3.20
2022-09-03T07:10:51.276Z,3.70
2022-09-03T07:16:06.810Z,2.50
2022-09-03T07:21:23.815Z,3.30
2022-09-03T07:26:30.862Z,2.20
2022-09-03T07:36:44.026Z,1.90
2022-09-03T07:41:50.724Z,2.40
2022-09-03T07:46:53.469Z,4.00
2022-09-03T07:51:56.855Z,2.80
2022-09-03T07:56:59.999Z,1.30
2022-09-03T08:02:06.457Z,2.00
2022-09-03T08:07:15.036Z,1.70
2022-09-03T08:12:19.250Z,2.10
2022-09-03T08:17:23.842Z,1.80
2022-09-03T08:22:28.494Z,2.20
2022-09-03T08:27:33.582Z,1.30
2022-09-03T08:32:40.574Z,1.90
2022-09-03T08:37:45.102Z,3.00
2022-09-03T08:43:24.278Z,1.50
2022-09-03T08:48:30.177Z,2.60
2022-09-03T08:53:57.998Z,5.40
2022-09-03T08:59:02.721Z,1.90
2022-09-03T09:04:49.001Z,2.20
2022-09-03T09:09:53.916Z,1.60
2022-09-03T09:15:10.138Z,1.10
2022-09-03T09:25:26.406Z,2.50
2022-09-03T09:30:31.392Z,1.60
2022-09-03T09:35:35.087Z,1.60
2022-09-03T09:40:44.798Z,1.70
2022-09-03T09:45:53.968Z,2.20
2022-09-03T09:51:21.328Z,2.70
2022-09-03T09:56:27.674Z,2.20
2022-09-03T10:01:32.395Z,2.20
2022-09-03T10:06:54.006Z,2.20
2022-09-03T10:12:24.561Z,1.80
2022-09-03T10:17:44.626Z,2.20
2022-09-03T10:22:56.911Z,2.40
2022-09-03T10:28:01.755Z,1.70
2022-09-03T10:33:07.151Z,2.10
2022-09-03T10:38:14.687Z,1.70
2022-09-03T10:43:38.462Z,1.80
2022-09-03T10:49:02.981Z,2.00
2022-09-03T10:54:31.898Z,1.60
2022-09-03T11:00:11.190Z,1.90
2022-09-03T11:05:23.671Z,2.10
2022-09-03T11:10:32.383Z,1.90
2022-09-03T11:16:02.088Z,2.20
2022-09-03T11:21:12.240Z,7.30
2022-09-03T11:26:19.439Z,2.00
2022-09-03T11:36:47.347Z,2.00
2022-09-03T11:42:18.217Z,2.00
2022-09-03T11:47:21.314Z,1.70
2022-09-03T11:52:32.881Z,1.60
2022-09-03T11:57:43.914Z,1.50
2022-09-03T12:02:59.007Z,1.90
2022-09-03T12:08:17.786Z,1.90
2022-09-03T12:14:13.481Z,2.30
2022-09-03T12:19:38.995Z,1.60
2022-09-03T12:24:43.105Z,2.10
2022-09-03T12:30:07.295Z,2.00
2022-09-03T12:46:16.424Z,2.70
2022-09-03T12:56:52.457Z,2.00
2022-09-03T13:02:02.193Z,2.40
2022-09-03T13:07:44.922Z,2.30
2022-09-03T13:12:52.429Z,1.70
2022-09-03T13:18:26.830Z,2.00
2022-09-03T13:23:40.472Z,3.00
2022-09-03T13:28:51.839Z,2.40
2022-09-03T13:34:01.592Z,2.00
2022-09-03T13:39:17.139Z,2.80
2022-09-03T13:44:26.734Z,1.80
2022-09-03T13:50:00.160Z,2.30
2022-09-03T13:55:28.591Z,2.00
2022-09-03T14:00:46.397Z,3.00
2022-09-03T14:06:27.149Z,3.50
2022-09-03T14:11:48.930Z,3.50
2022-09-03T14:17:38.454Z,2.10
2022-09-03T14:22:46.736Z,2.90
2022-09-03T14:27:56.972Z,3.80
2022-09-03T14:33:15.667Z,3.90
2022-09-03T14:39:10.403Z,3.50
2022-09-03T14:44:53.375Z,4.40
2022-09-03T14:50:22.839Z,3.30
2022-09-03T14:56:04.656Z,3.60
2022-09-03T15:01:38.888Z,3.40
2022-09-03T15:07:14.353Z,3.20
2022-09-03T15:12:28.998Z,3.60
2022-09-03T15:17:53.152Z,3.00
2022-09-03T15:23:38.383Z,3.50
2022-09-03T15:29:00.559Z,3.60
2022-09-03T15:34:52.215Z,3.80
2022-09-03T15:40:37.366Z,3.80
2022-09-03T15:46:20.886Z,4.20
2022-09-03T15:52:12.450Z,4.60
2022-09-03T15:57:39.348Z,3.40
2022-09-03T16:03:26.157Z,3.40
2022-09-03T16:09:15.458Z,3.30
2022-09-03T16:14:37.474Z,3.40
2022-09-03T16:19:56.644Z,3.20
2022-09-03T16:25:36.913Z,3.30
2022-09-03T16:31:20.663Z,3.10
2022-09-03T16:36:50.286Z,3.30
2022-09-03T16:42:32.148Z,3.10
2022-09-03T16:47:55.534Z,3.60
2022-09-03T16:53:19.555Z,4.40
2022-09-03T16:58:25.286Z,3.00
2022-09-03T17:03:45.978Z,3.10
2022-09-03T17:09:02.141Z,3.90
2022-09-03T17:14:41.924Z,3.40
2022-09-03T17:19:54.099Z,4.40
2022-09-03T17:25:05.267Z,6.90
2022-09-03T17:30:34.518Z,6.10
2022-09-03T17:35:49.390Z,3.90
2022-09-03T17:41:12.451Z,3.10
2022-09-03T17:46:28.713Z,3.00
2022-09-03T17:51:49.443Z,3.50
2022-09-03T17:57:30.661Z,3.40
2022-09-03T18:02:34.822Z,2.60
2022-09-03T18:07:50.658Z,4.00
2022-09-03T18:13:05.645Z,3.40
2022-09-03T18:18:20.851Z,3.10
2022-09-03T18:24:06.357Z,2.80
2022-09-03T18:29:35.102Z,3.20
2022-09-03T18:34:58.905Z,3.30
2022-09-03T18:40:21.425Z,3.50
2022-09-03T18:52:14.290Z,3.50
2022-09-03T18:57:50.415Z,2.90
2022-09-03T19:03:40.506Z,3.40
2022-09-03T19:09:35.300Z,4.50
2022-09-03T19:15:11.849Z,3.40
2022-09-03T19:20:54.993Z,5.50
2022-09-03T19:26:40.532Z,4.60
2022-09-03T19:32:24.608Z,4.90
2022-09-03T19:37:55.722Z,6.10
2022-09-03T19:43:42.033Z,5.30
2022-09-03T19:49:12.550Z,5.30
2022-09-03T19:54:37.360Z,4.90
2022-09-03T19:59:59.593Z,4.90
2022-09-03T20:05:24.858Z,5.40
2022-09-03T20:10:28.017Z,6.00
2022-09-03T20:16:14.417Z,4.70
2022-09-03T20:21:31.075Z,4.70
2022-09-03T20:27:00.436Z,4.60
2022-09-03T20:32:05.588Z,6.60
2022-09-03T20:37:24.133Z,4.20
2022-09-03T20:42:36.726Z,4.10
2022-09-03T20:48:00.896Z,5.10
2022-09-03T20:53:48.573Z,5.10
2022-09-03T20:59:08.216Z,5.20
2022-09-03T21:04:24.316Z,5.00
2022-09-03T21:09:53.181Z,5.00
2022-09-03T21:15:15.915Z,5.60
2022-09-03T21:20:34.115Z,5.80
2022-09-03T21:25:45.815Z,5.60
2022-09-03T21:30:56.321Z,5.90
2022-09-03T21:36:15.825Z,6.10
2022-09-03T21:41:32.369Z,6.40
2022-09-03T21:46:45.143Z,5.50
2022-09-03T21:51:59.253Z,7.90
2022-09-03T21:57:44.021Z,6.70
2022-09-03T22:02:47.125Z,7.70
2022-09-03T22:07:53.214Z,8.30
2022-09-03T22:13:21.390Z,7.90
2022-09-03T22:18:29.688Z,6.40
2022-09-03T22:23:47.429Z,7.60
2022-09-03T22:29:08.702Z,7.90
2022-09-03T22:34:30.641Z,8.80
2022-09-03T22:39:37.157Z,11.10
2022-09-03T22:44:54.935Z,11.10
2022-09-03T22:50:15.642Z,7.80
2022-09-03T22:55:22.940Z,9.40
2022-09-03T23:00:29.851Z,7.30
2022-09-03T23:06:03.650Z,7.50
2022-09-03T23:11:26.796Z,7.30
2022-09-03T23:16:37.756Z,7.60
2022-09-03T23:22:04.417Z,7.50
2022-09-03T23:27:14.252Z,6.20
2022-09-03T23:32:17.593Z,8.00
2022-09-03T23:37:35.963Z,6.30
2022-09-03T23:42:59.521Z,7.10
2022-09-03T23:48:37.248Z,7.90
2022-09-03T23:53:59.331Z,6.20
2022-09-03T23:59:19.409Z,7.20
